createdAt,value
2023-02-16T00:00:56.409Z,-5.40
2023-02-16T00:03:59.292Z,-5.32
2023-02-16T00:07:01.893Z,-5.41
2023-02-16T00:10:04.783Z,-5.48
2023-02-16T00:13:45.513Z,-5.47
2023-02-16T00:16:48.545Z,-5.53
2023-02-16T00:19:51.146Z,-5.58
2023-02-16T00:22:53.711Z,-5.72
2023-02-16T00:25:56.476Z,-5.81
2023-02-16T00:28:59.298Z,-5.88
2023-02-16T00:32:03.920Z,-5.75
2023-02-16T00:35:18.065Z,-5.47
2023-02-16T00:38:20.720Z,-5.52
2023-02-16T00:41:43.506Z,-5.66
2023-02-16T00:44:51.835Z,-5.77
2023-02-16T00:47:54.669Z,-5.59
2023-02-16T00:50:59.432Z,-5.46
2023-02-16T00:54:01.947Z,-5.54
2023-02-16T00:57:04.543Z,-5.67
2023-02-16T01:00:27.327Z,-5.70
2023-02-16T01:03:30.067Z,-5.83
2023-02-16T01:06:51.160Z,-5.86
2023-02-16T01:10:12.663Z,-5.90
2023-02-16T01:13:15.879Z,-5.76
2023-02-16T01:16:22.914Z,-5.70
2023-02-16T01:19:25.912Z,-5.77
2023-02-16T01:22:33.458Z,-6.00
2023-02-16T01:25:36.737Z,-6.04
2023-02-16T01:28:39.393Z,-5.96
2023-02-16T01:31:42.633Z,-6.08
2023-02-16T01:34:45.287Z,-6.11
2023-02-16T01:37:48.830Z,-6.18
2023-02-16T01:41:06.146Z,-6.18
2023-02-16T01:44:21.182Z,-6.28
2023-02-16T01:47:54.072Z,-6.20
2023-02-16T01:51:05.545Z,-6.16
2023-02-16T01:54:14.384Z,-6.19
2023-02-16T01:57:41.814Z,-6.36
2023-02-16T02:00:53.851Z,-6.33
2023-02-16T02:04:14.887Z,-6.36
2023-02-16T02:07:33.564Z,-6.23
2023-02-16T02:11:05.674Z,-6.28
2023-02-16T02:14:16.131Z,-6.47
2023-02-16T02:17:20.820Z,-6.56
2023-02-16T02:21:02.091Z,-6.61
2023-02-16T02:24:16.250Z,-6.35
2023-02-16T02:27:33.325Z,-6.41
2023-02-16T02:31:18.783Z,-6.47
2023-02-16T02:34:42.490Z,-6.40
2023-02-16T02:37:50.981Z,-6.37
2023-02-16T02:41:04.008Z,-6.39
2023-02-16T02:44:09.280Z,-6.24
2023-02-16T02:47:12.030Z,-6.33
2023-02-16T02:50:39.321Z,-6.19
2023-02-16T02:53:50.483Z,-6.11
2023-02-16T02:57:19.148Z,-6.04
2023-02-16T03:00:41.306Z,-6.11
2023-02-16T03:03:51.185Z,-6.04
2023-02-16T03:06:55.991Z,-6.17
2023-02-16T03:10:18.485Z,-6.15
2023-02-16T03:13:27.483Z,-6.20
2023-02-16T03:16:43.431Z,-6.30
2023-02-16T03:20:06.718Z,-6.41
2023-02-16T03:23:27.873Z,-6.52
2023-02-16T03:26:50.572Z,-6.38
2023-02-16T03:29:54.368Z,-6.51
2023-02-16T03:32:56.956Z,-6.37
2023-02-16T03:35:59.962Z,-6.17
2023-02-16T03:39:03.734Z,-6.19
2023-02-16T03:42:06.360Z,-6.16
2023-02-16T03:45:09.246Z,-6.08
2023-02-16T03:48:11.974Z,-6.32
2023-02-16T03:51:14.749Z,-6.41
2023-02-16T03:54:17.241Z,-6.52
2023-02-16T03:57:19.926Z,-6.39
2023-02-16T04:00:22.505Z,-6.51
2023-02-16T04:03:25.758Z,-6.71
2023-02-16T04:06:28.332Z,-6.81
2023-02-16T04:09:30.816Z,-6.79
2023-02-16T04:12:36.403Z,-6.86
2023-02-16T04:15:39.184Z,-6.75
2023-02-16T04:18:41.842Z,-6.49
2023-02-16T04:21:44.538Z,-6.41
2023-02-16T04:24:47.711Z,-6.35
2023-02-16T04:27:50.537Z,-6.43
2023-02-16T04:30:53.151Z,-6.65
2023-02-16T04:33:55.875Z,-6.81
2023-02-16T04:36:59.004Z,-6.92
2023-02-16T04:40:01.628Z,-7.09
2023-02-16T04:43:04.262Z,-7.12
2023-02-16T04:46:06.767Z,-7.15
2023-02-16T04:49:09.549Z,-7.10
2023-02-16T04:52:13.656Z,-7.12
2023-02-16T04:55:16.342Z,-7.18
2023-02-16T04:58:18.920Z,-7.21
2023-02-16T05:01:22.755Z,-7.27
2023-02-16T05:04:25.422Z,-6.98
2023-02-16T05:07:28.066Z,-6.84
2023-02-16T05:10:30.611Z,-6.78
2023-02-16T05:13:51.919Z,-6.99
2023-02-16T05:16:54.501Z,-7.11
2023-02-16T05:19:59.484Z,-7.13
2023-02-16T05:23:01.990Z,-7.37
2023-02-16T05:26:04.806Z,-7.32
2023-02-16T05:29:07.994Z,-7.28
2023-02-16T05:32:10.993Z,-7.23
2023-02-16T05:35:13.623Z,-7.13
2023-02-16T05:38:16.179Z,-7.15
2023-02-16T05:41:24.829Z,-7.23
2023-02-16T05:44:27.475Z,-7.22
2023-02-16T05:47:30.162Z,-7.24
2023-02-16T05:50:32.690Z,-7.25
2023-02-16T05:53:35.369Z,-7.20
2023-02-16T05:56:38.088Z,-7.30
2023-02-16T05:59:40.837Z,-7.44
2023-02-16T06:02:43.494Z,-7.58
2023-02-16T06:05:46.266Z,-7.35
2023-02-16T06:08:49.073Z,-7.08
2023-02-16T06:11:51.652Z,-6.74
2023-02-16T06:14:56.071Z,-6.67
2023-02-16T06:17:58.701Z,-6.55
2023-02-16T06:21:01.929Z,-6.52
2023-02-16T06:24:05.393Z,-6.53
2023-02-16T06:27:08.275Z,-6.49
2023-02-16T06:30:12.522Z,-6.43
2023-02-16T06:33:15.266Z,-6.44
2023-02-16T06:36:18.432Z,-6.35
2023-02-16T06:39:21.147Z,-6.14
2023-02-16T06:42:23.937Z,-6.08
2023-02-16T06:45:26.519Z,-5.98
2023-02-16T06:48:29.514Z,-5.82
2023-02-16T06:51:32.186Z,-5.77
2023-02-16T06:54:34.910Z,-5.64
2023-02-16T06:57:37.538Z,-5.74
2023-02-16T07:00:40.495Z,-5.58
2023-02-16T07:03:43.108Z,-5.51
2023-02-16T07:06:45.651Z,-5.40
2023-02-16T07:09:48.288Z,-5.38
2023-02-16T07:12:50.946Z,-5.22
2023-02-16T07:15:53.588Z,-5.01
2023-02-16T07:18:56.311Z,-4.79
2023-02-16T07:22:00.106Z,-4.63
2023-02-16T07:25:02.856Z,-4.42
2023-02-16T07:28:05.759Z,-4.18
2023-02-16T07:31:11.095Z,-3.84
2023-02-16T07:34:13.946Z,-3.50
2023-02-16T07:37:16.612Z,-3.22
2023-02-16T07:40:19.328Z,-2.90
2023-02-16T07:43:21.973Z,-2.74
2023-02-16T07:46:24.586Z,-2.67
2023-02-16T07:49:27.228Z,-2.59
2023-02-16T07:52:31.414Z,-2.55
2023-02-16T07:55:39.579Z,-2.52
2023-02-16T07:58:42.083Z,-2.53
2023-02-16T08:01:44.652Z,-2.53
2023-02-16T08:04:52.955Z,-2.44
2023-02-16T08:07:59.521Z,-2.25
2023-02-16T08:11:14.928Z,-2.22
2023-02-16T08:14:18.195Z,-2.29
2023-02-16T08:17:20.801Z,-1.79
2023-02-16T08:20:28.402Z,-1.58
2023-02-16T08:23:38.056Z,-1.46
2023-02-16T08:26:43.225Z,-1.24
2023-02-16T08:29:47.280Z,-1.18
2023-02-16T08:32:51.110Z,-1.05
2023-02-16T08:35:53.638Z,-0.89
2023-02-16T08:38:56.603Z,-0.62
2023-02-16T08:42:04.248Z,-0.60
2023-02-16T08:45:09.376Z,-0.67
2023-02-16T08:48:12.005Z,-0.83
2023-02-16T08:51:25.781Z,-0.88
2023-02-16T08:54:33.486Z,-0.86
2023-02-16T08:57:36.203Z,-0.73
2023-02-16T09:00:39.099Z,-0.72
2023-02-16T09:03:46.261Z,-0.54
2023-02-16T09:06:49.150Z,-0.40
2023-02-16T09:09:54.316Z,-0.29
2023-02-16T09:13:01.250Z,-0.06
2023-02-16T09:16:08.158Z,0.24
2023-02-16T09:19:19.788Z,0.40
2023-02-16T09:22:22.699Z,0.43
2023-02-16T09:25:28.471Z,0.53
2023-02-16T09:28:31.155Z,0.75
2023-02-16T09:31:39.769Z,0.94
2023-02-16T09:34:44.741Z,1.13
2023-02-16T09:37:51.273Z,1.33
2023-02-16T09:40:55.186Z,1.68
2023-02-16T09:44:10.425Z,1.88
2023-02-16T09:47:33.899Z,2.22
2023-02-16T09:50:53.374Z,2.39
2023-02-16T09:54:04.188Z,2.61
2023-02-16T09:58:00.686Z,2.77
2023-02-16T10:01:29.077Z,2.76
2023-02-16T10:04:47.794Z,2.78
2023-02-16T10:08:00.089Z,3.13
2023-02-16T10:11:37.788Z,3.23
2023-02-16T10:14:45.169Z,3.42
2023-02-16T10:17:56.122Z,3.78
2023-02-16T10:21:09.444Z,3.89
2023-02-16T10:24:12.667Z,4.12
2023-02-16T10:27:16.540Z,4.21
2023-02-16T10:30:23.608Z,4.29
2023-02-16T10:33:41.739Z,4.30
2023-02-16T10:37:06.331Z,4.39
